Fairbanks International, AK

12:22 PM AKDT on September 19, 2014 (GMT -0800)
Ladd Army Air Field | Change Station
CLOSE
Current Station
Airport
Location: Fairbanks Ft. Wainwright,
Elevation: 453 ft
Nearby Weather Stations

Elev 453 ft 64.84 °N, 147.61 °W | Updated 27 minutes ago

Scattered Clouds
Scattered Clouds
52 °F
Feels Like 52 °F
N
4
Wind Variable Wind from SSE

Today
High -- | Low -- °F
--% Chance of Precip.
Yesterday
High -- | Low -- °F
Precip. -- in
7:25 AM 8:02 PM
Waning Crescent, 17% visible
Pressure 29.26 in
Visibility 25.0 miles
Clouds Few 12000 ft
Scattered Clouds 20000 ft
Dew Point 36 °F
Humidity 54%
Rainfall 0.00 in
Snow Depth 0 in , 0 in , 0 in
UV 2 out of 12
Pollen Not available.
Air Quality Not available.
Flu Activity Not available.
METAR PAFB 191955Z 15003KT 25SM FEW120 SCT200 11/02 A2925 RMK SLP906

More Conditions Fewer Conditions

Pressure 29.26 in
Visibility 25.0 miles
Clouds Few 12000 ft
Scattered Clouds 20000 ft
Dew Point 36 °F
Humidity 54%
Rainfall 0.00 in
Snow Depth 0 in , 0 in , 0 in
UV 2 out of 12
Pollen Not available.
Air Quality Not available.
Flu Activity Not available.
METAR PAFB 191955Z 15003KT 25SM FEW120 SCT200 11/02 A2925 RMK SLP906

More Conditions Fewer Conditions

10-Day Weather Forecast

Almanac

Astronomy

Sep. 19, 2014 Rise Set
Actual Time 7:25 AM AKDT 8:02 PM AKDT
Civil Twilight 6:36 AM AKDT 8:51 PM AKDT
Nautical Twilight 5:34 AM AKDT 9:52 PM AKDT
Astronomical Twilight 4:20 AM AKDT 11:05 PM AKDT
Moon 2:04 AM AKDT 6:39 PM AKDT
Length of Visible Light 14h 15m
Length of Day
12h 36m
Tomorrow will be 6m 37s shorter.
Waning Crescent, 17% of the Moon is Illuminated
Today
Waning Crescent
Sep 24
New
Oct 1
First Quarter
Oct 8
Full
Oct 15
Last Quarter

Today's Extremes

State Highs State Lows

Community

WunderPhotos

Upload Photos

1,754,693 photos uploaded!

WunderBlogs® & News

By Dr. Jeff Masters
Director of Meteorology, Weather Underground
By Kari Strenfel
Meteorologist, Weather Underground
By Christopher C. Burt
Weather Historian, Weather Underground
September 19, 2014
September 19, 2014
September 19, 2014

Nearby

Snow Depth

Station Depth Elevation
Eagle Summit 0 in 3650 ft
Coldfoot 0 in 1040 ft
Pargon Creek 0 in 300 ft
Upper Tsaina River 0 in 1750 ft
Upper Chena 1 in 2850 ft

Earthquake Activity

City Distance Mag. Time & Date
No recent earthquake activity has been reported nearby.
Minimum magnitude displayed is 2.5.

Coastal Water Temperatures

Place Temperature
No Stations Reporting

Nearby Weather Stations